Time;durP1;ratioP1;P1;durP2;ratioP2;P2;SDS_P1;SDS_P2;PMS_P1;PMS_P2;Temp;Humidity;BMP_temperature;BMP_pressure;BME280_temperature;BME280_humidity;BME280_pressure;Samples;Min_cycle;Max_cycle;Signal;HPM_P1;HPM_P2
2023/04/09 00:01:05;;;;;;;14.87;13.27;;;4.10;99.90;;;;;;4897075;29;20209;-76
2023/04/09 00:03:35;;;;;;;15.77;14.17;;;4.00;99.90;;;;;;4904017;29;20213;-75
2023/04/09 00:06:03;;;;;;;15.37;13.80;;;4.00;99.90;;;;;;4916272;29;20208;-75
2023/04/09 00:08:33;;;;;;;15.67;14.07;;;4.00;99.90;;;;;;4916342;29;20305;-75
2023/04/09 00:11:01;;;;;;;14.53;13.03;;;4.00;99.90;;;;;;4882252;29;20264;-76
2023/04/09 00:13:29;;;;;;;15.67;13.37;;;4.00;99.90;;;;;;4878254;29;20673;-75
2023/04/09 00:16:00;;;;;;;14.93;13.43;;;3.90;99.90;;;;;;4878813;29;20310;-75
2023/04/09 00:18:28;;;;;;;15.17;13.67;;;4.00;99.90;;;;;;4886619;29;20235;-74
2023/04/09 00:20:56;;;;;;;15.40;13.80;;;4.00;99.90;;;;;;4897247;29;20218;-75
2023/04/09 00:23:24;;;;;;;15.70;14.10;;;4.00;99.90;;;;;;4896578;29;20702;-75
2023/04/09 00:25:54;;;;;;;15.47;13.87;;;4.00;99.90;;;;;;4897143;29;20275;-74
2023/04/09 00:28:22;;;;;;;16.50;14.77;;;3.90;99.90;;;;;;4896882;29;20269;-74
2023/04/09 00:30:51;;;;;;;15.87;14.23;;;3.90;99.90;;;;;;4896822;29;20256;-74
2023/04/09 00:33:19;;;;;;;15.20;13.60;;;3.90;99.90;;;;;;4896989;29;20224;-75
2023/04/09 00:35:47;;;;;;;14.77;13.17;;;3.90;99.90;;;;;;4898302;29;20264;-75
2023/04/09 00:38:15;;;;;;;16.03;14.13;;;3.90;99.90;;;;;;4881471;29;20222;-75
2023/04/09 00:40:43;;;;;;;18.23;14.53;;;3.90;99.90;;;;;;4885055;29;20623;-74
2023/04/09 00:43:12;;;;;;;16.93;14.80;;;3.90;99.90;;;;;;4897081;29;20213;-74
2023/04/09 00:45:40;;;;;;;17.50;14.73;;;3.90;99.90;;;;;;4892302;29;20217;-75
2023/04/09 00:48:09;;;;;;;15.77;14.17;;;3.90;99.90;;;;;;4879115;29;20218;-74
2023/04/09 00:50:37;;;;;;;16.10;14.50;;;3.90;99.90;;;;;;4878288;29;20211;-74
2023/04/09 00:53:05;;;;;;;16.20;14.50;;;3.90;99.90;;;;;;4878390;29;20221;-74
2023/04/09 00:55:35;;;;;;;15.50;13.87;;;3.90;99.90;;;;;;4879160;29;20214;-75
2023/04/09 00:58:03;;;;;;;16.70;15.00;;;3.90;99.90;;;;;;4884819;29;20249;-73
2023/04/09 01:00:33;;;;;;;16.27;14.57;;;3.90;99.90;;;;;;4887855;29;20214;-73
2023/04/09 01:03:01;;;;;;;16.27;14.57;;;3.80;99.90;;;;;;4889079;29;20278;-75
2023/04/09 01:05:35;;;;;;;16.47;14.77;;;3.80;99.90;;;;;;4898447;29;20210;-73
2023/04/09 01:08:09;;;;;;;17.20;15.47;;;3.80;99.90;;;;;;4895894;29;20243;-74
2023/04/09 01:10:43;;;;;;;16.40;14.70;;;3.80;99.90;;;;;;4889084;29;20202;-75
2023/04/09 01:13:16;;;;;;;16.13;14.43;;;3.80;99.90;;;;;;4888797;29;20203;-75
2023/04/09 01:15:51;;;;;;;16.43;14.57;;;3.80;99.90;;;;;;4901126;29;20217;-74
2023/04/09 01:18:25;;;;;;;15.67;14.07;;;3.80;99.90;;;;;;4902013;29;20555;-74
2023/04/09 01:20:59;;;;;;;17.00;15.20;;;3.80;99.90;;;;;;4904555;29;20198;-74
2023/04/09 01:23:47;;;;;;;16.43;14.73;;;3.70;99.90;;;;;;4905099;29;20209;-74
2023/04/09 01:26:24;;;;;;;17.23;15.43;;;3.70;99.90;;;;;;4908338;29;20198;-74
2023/04/09 01:28:56;;;;;;;17.00;15.20;;;3.80;99.90;;;;;;4914974;29;20227;-76
2023/04/09 01:31:29;;;;;;;16.50;14.80;;;3.80;99.90;;;;;;4904226;29;20301;-75
2023/04/09 01:33:59;;;;;;;17.10;15.40;;;3.80;99.90;;;;;;4890175;29;20194;-75
2023/04/09 01:36:28;;;;;;;16.93;15.13;;;3.70;99.90;;;;;;4880993;29;20238;-76
2023/04/09 01:38:57;;;;;;;16.73;15.03;;;3.70;99.90;;;;;;4891936;29;20214;-75
2023/04/09 01:41:26;;;;;;;17.67;15.83;;;3.70;99.90;;;;;;4900229;29;20641;-75
2023/04/09 01:43:56;;;;;;;17.60;15.70;;;3.70;99.90;;;;;;4899051;29;20744;-75
2023/04/09 01:46:26;;;;;;;17.43;15.63;;;3.70;99.90;;;;;;4898086;29;20217;-75
2023/04/09 01:48:55;;;;;;;17.03;15.23;;;3.70;99.90;;;;;;4880834;29;20273;-75
2023/04/09 01:51:25;;;;;;;17.63;15.83;;;3.70;99.90;;;;;;4880145;29;20214;-75
2023/04/09 01:53:53;;;;;;;17.93;16.13;;;3.70;99.90;;;;;;4880262;29;20210;-74
2023/04/09 01:56:21;;;;;;;17.57;15.67;;;3.70;99.90;;;;;;4918093;29;20276;-74
2023/04/09 01:58:49;;;;;;;18.43;16.07;;;3.70;99.90;;;;;;4926202;29;20219;-74
2023/04/09 02:01:27;;;;;;;17.20;15.40;;;3.70;99.90;;;;;;4917786;29;20241;-76
2023/04/09 02:04:00;;;;;;;18.70;16.70;;;3.70;99.90;;;;;;4916378;29;20288;-73
2023/04/09 02:06:38;;;;;;;19.77;16.80;;;3.70;99.90;;;;;;4881472;29;20239;-74
2023/04/09 02:09:08;;;;;;;20.60;16.60;;;3.60;99.90;;;;;;4881323;29;20642;-79
2023/04/09 02:11:40;;;;;;;18.33;16.33;;;3.60;99.90;;;;;;4883711;29;20245;-74
2023/04/09 02:14:10;;;;;;;17.53;15.73;;;3.60;99.90;;;;;;4886387;29;20217;-75
2023/04/09 02:16:41;;;;;;;18.17;16.27;;;3.60;99.90;;;;;;4901524;29;20234;-75
2023/04/09 02:19:09;;;;;;;18.80;16.87;;;3.60;99.90;;;;;;4899647;29;20645;-74
2023/04/09 02:21:37;;;;;;;18.30;16.10;;;3.60;99.90;;;;;;4899011;29;20214;-76
2023/04/09 02:24:06;;;;;;;17.53;15.73;;;3.50;99.90;;;;;;4893423;29;20221;-75
2023/04/09 02:26:34;;;;;;;18.27;16.37;;;3.50;99.90;;;;;;4880157;29;20298;-77
2023/04/09 02:29:02;;;;;;;18.87;16.80;;;3.50;99.90;;;;;;4880177;29;20210;-76
2023/04/09 02:31:30;;;;;;;19.93;16.43;;;3.50;99.90;;;;;;4879466;29;20222;-75
2023/04/09 02:34:00;;;;;;;18.73;16.67;;;3.50;99.90;;;;;;4880274;29;20681;-76
2023/04/09 02:36:28;;;;;;;18.33;16.37;;;3.50;99.90;;;;;;4879605;29;20213;-76
2023/04/09 02:38:57;;;;;;;18.53;16.57;;;3.50;99.90;;;;;;4893538;29;20218;-76
2023/04/09 02:41:25;;;;;;;17.80;16.00;;;3.40;99.90;;;;;;4898013;29;20584;-76
2023/04/09 02:43:53;;;;;;;18.80;16.90;;;3.40;99.90;;;;;;4882083;29;20694;-76
2023/04/09 02:46:21;;;;;;;18.90;16.90;;;3.30;99.90;;;;;;4879605;29;20218;-74
2023/04/09 02:48:49;;;;;;;18.10;16.20;;;3.20;99.90;;;;;;4879938;29;20214;-75
2023/04/09 02:51:19;;;;;;;18.87;16.83;;;3.20;99.90;;;;;;4881116;29;20305;-73
2023/04/09 02:53:47;;;;;;;20.17;16.77;;;3.20;99.90;;;;;;4879829;29;20213;-75
2023/04/09 02:56:15;;;;;;;18.17;16.27;;;3.10;99.90;;;;;;4879557;29;20699;-75
2023/04/09 02:58:43;;;;;;;18.60;16.70;;;3.10;99.90;;;;;;4882046;29;20252;-74
2023/04/09 03:01:11;;;;;;;18.73;16.70;;;3.10;99.90;;;;;;4897815;29;20704;-75
2023/04/09 03:03:41;;;;;;;18.13;16.23;;;3.10;99.90;;;;;;4897687;29;20273;-76
2023/04/09 03:06:10;;;;;;;18.77;16.87;;;3.00;99.90;;;;;;4897753;29;20679;-74
2023/04/09 03:08:39;;;;;;;19.10;17.07;;;3.00;99.90;;;;;;4897716;29;20237;-75
2023/04/09 03:11:07;;;;;;;18.30;16.40;;;3.00;99.90;;;;;;4897785;29;20253;-75
2023/04/09 03:13:35;;;;;;;18.57;16.50;;;3.00;99.90;;;;;;4897294;29;20589;-76
2023/04/09 03:16:04;;;;;;;18.07;16.17;;;2.90;99.90;;;;;;4897648;29;20676;-76
2023/04/09 03:18:32;;;;;;;18.87;16.87;;;3.00;99.90;;;;;;4879678;29;20657;-74
2023/04/09 03:21:04;;;;;;;18.43;16.53;;;2.90;99.90;;;;;;4878426;29;20563;-77
2023/04/09 03:23:33;;;;;;;19.07;17.07;;;2.90;99.90;;;;;;4878642;29;20596;-73
2023/04/09 03:26:05;;;;;;;18.50;16.60;;;2.90;99.90;;;;;;4885316;29;20225;-75
2023/04/09 03:28:33;;;;;;;19.77;17.67;;;2.90;99.90;;;;;;4878681;29;20648;-76
2023/04/09 03:31:01;;;;;;;19.80;17.10;;;2.90;99.90;;;;;;4878974;29;20739;-76
2023/04/09 03:33:29;;;;;;;19.70;17.57;;;2.90;99.90;;;;;;4878327;29;20697;-75
2023/04/09 03:35:57;;;;;;;19.70;17.70;;;3.00;99.90;;;;;;4889006;29;20229;-75
2023/04/09 03:38:25;;;;;;;19.47;17.47;;;2.90;99.90;;;;;;4897293;29;20288;-75
2023/04/09 03:40:55;;;;;;;21.37;18.47;;;3.00;99.90;;;;;;4897288;29;20218;-77
2023/04/09 03:43:25;;;;;;;21.17;18.97;;;2.90;99.90;;;;;;4896942;29;20220;-74
2023/04/09 03:45:53;;;;;;;19.83;17.83;;;2.90;99.90;;;;;;4879651;29;20218;-75
2023/04/09 03:48:21;;;;;;;19.93;17.93;;;3.00;99.90;;;;;;4878598;29;20273;-75
2023/04/09 03:50:49;;;;;;;20.13;18.00;;;2.90;99.90;;;;;;4878626;29;20215;-74
2023/04/09 03:53:17;;;;;;;20.73;18.53;;;2.90;99.90;;;;;;4878747;29;20292;-76
2023/04/09 03:55:45;;;;;;;20.47;18.13;;;2.90;99.90;;;;;;4878254;29;20210;-76
2023/04/09 03:58:13;;;;;;;20.47;18.30;;;2.90;99.90;;;;;;4878173;29;20240;-76
2023/04/09 04:00:43;;;;;;;20.37;18.27;;;2.90;99.90;;;;;;4878577;29;20266;-75
2023/04/09 04:03:13;;;;;;;20.50;18.30;;;2.90;99.90;;;;;;4892394;29;20341;-76
2023/04/09 04:05:44;;;;;;;19.70;17.70;;;2.90;99.90;;;;;;4896841;29;20221;-75
2023/04/09 04:08:12;;;;;;;20.23;17.43;;;2.90;99.90;;;;;;4897535;29;20210;-75
2023/04/09 04:10:40;;;;;;;21.33;19.13;;;2.90;99.90;;;;;;4888088;29;20216;-75
2023/04/09 04:13:08;;;;;;;19.70;17.60;;;2.90;99.90;;;;;;4880458;29;20202;-74
2023/04/09 04:15:41;;;;;;;20.50;18.40;;;2.90;99.90;;;;;;4886549;29;20218;-73
2023/04/09 04:18:10;;;;;;;19.73;17.67;;;2.90;99.90;;;;;;4878264;29;20226;-76
2023/04/09 04:20:40;;;;;;;19.70;17.67;;;2.90;99.90;;;;;;4896869;29;20293;-75
2023/04/09 04:23:08;;;;;;;20.07;17.90;;;2.90;99.90;;;;;;4896521;29;20580;-74
2023/04/09 04:25:36;;;;;;;20.60;18.00;;;2.90;99.90;;;;;;4896791;29;20659;-74
2023/04/09 04:28:04;;;;;;;20.13;17.97;;;2.80;99.90;;;;;;4897067;29;20210;-75
2023/04/09 04:30:32;;;;;;;19.53;17.53;;;2.80;99.90;;;;;;4896896;29;20224;-73
2023/04/09 04:33:00;;;;;;;19.43;17.33;;;2.80;99.90;;;;;;4900165;29;20703;-75
2023/04/09 04:35:30;;;;;;;19.23;17.20;;;2.70;99.90;;;;;;4900218;29;20215;-76
2023/04/09 04:37:58;;;;;;;19.57;17.57;;;2.60;99.90;;;;;;4900839;29;20226;-76
2023/04/09 04:40:26;;;;;;;20.13;17.53;;;2.60;99.90;;;;;;4900602;29;20218;-76
2023/04/09 04:42:55;;;;;;;22.13;19.17;;;2.50;99.90;;;;;;4899907;29;20312;-75
2023/04/09 04:45:23;;;;;;;20.03;17.93;;;2.40;99.90;;;;;;4900091;29;20210;-75
2023/04/09 04:47:51;;;;;;;21.17;18.70;;;2.40;99.90;;;;;;4900773;29;20203;-76
2023/04/09 04:50:19;;;;;;;22.57;19.60;;;2.30;99.90;;;;;;4901096;29;20217;-74
2023/04/09 04:52:48;;;;;;;20.10;17.40;;;2.30;99.90;;;;;;4900540;29;20223;-76
2023/04/09 04:55:17;;;;;;;23.57;19.07;;;2.20;99.90;;;;;;4900446;29;20225;-77
2023/04/09 04:57:45;;;;;;;22.47;18.30;;;2.20;99.90;;;;;;4900252;29;20209;-75
2023/04/09 05:00:14;;;;;;;20.40;18.20;;;2.10;99.90;;;;;;4900418;29;20209;-76
2023/04/09 05:02:42;;;;;;;20.87;18.63;;;2.00;99.90;;;;;;4900118;29;20304;-75
2023/04/09 05:05:10;;;;;;;21.87;19.03;;;2.00;99.90;;;;;;4900139;29;20327;-75
2023/04/09 05:07:39;;;;;;;24.50;21.43;;;1.90;99.90;;;;;;4899949;29;20633;-74
2023/04/09 05:10:09;;;;;;;24.63;20.70;;;2.00;99.90;;;;;;4900149;29;20205;-75
2023/04/09 05:12:38;;;;;;;23.63;20.63;;;2.00;99.90;;;;;;4890902;29;20246;-77
2023/04/09 05:15:07;;;;;;;24.23;19.50;;;2.00;99.90;;;;;;4881479;29;20226;-76
2023/04/09 05:17:35;;;;;;;21.80;19.13;;;2.00;99.90;;;;;;4880982;29;20241;-76
2023/04/09 05:20:04;;;;;;;22.13;18.93;;;2.10;99.90;;;;;;4881125;29;20237;-75
2023/04/09 05:22:32;;;;;;;23.23;18.73;;;2.10;99.90;;;;;;4898974;29;20222;-77
2023/04/09 05:25:01;;;;;;;21.77;19.47;;;2.20;99.90;;;;;;4901217;29;20210;-74
2023/04/09 05:27:30;;;;;;;22.80;19.67;;;2.20;99.90;;;;;;4900467;29;20214;-74
2023/04/09 05:29:58;;;;;;;20.73;18.53;;;2.30;99.90;;;;;;4903134;29;20281;-75
2023/04/09 05:32:28;;;;;;;22.93;18.87;;;2.50;99.90;;;;;;4880773;29;20221;-77
2023/04/09 05:34:56;;;;;;;20.97;18.50;;;2.60;99.90;;;;;;4896916;29;20406;-73
2023/04/09 05:37:24;;;;;;;21.23;18.93;;;2.70;99.90;;;;;;4899383;29;20217;-75
2023/04/09 05:39:52;;;;;;;20.70;18.50;;;2.80;99.90;;;;;;4888551;29;20226;-75
2023/04/09 05:42:21;;;;;;;21.17;18.93;;;3.00;99.90;;;;;;4880170;29;20214;-76
2023/04/09 05:44:50;;;;;;;21.90;19.70;;;3.10;99.90;;;;;;4880897;29;20348;-74
2023/04/09 05:47:18;;;;;;;20.97;18.70;;;3.20;99.90;;;;;;4882394;29;20305;-77
2023/04/09 05:49:47;;;;;;;19.63;17.53;;;3.30;99.90;;;;;;4889427;29;20222;-75
2023/04/09 05:52:16;;;;;;;18.87;16.87;;;3.50;99.90;;;;;;4889216;29;20309;-76
2023/04/09 05:54:44;;;;;;;18.77;16.77;;;3.70;99.90;;;;;;4892134;29;20228;-76
2023/04/09 05:57:12;;;;;;;19.00;17.00;;;3.80;99.90;;;;;;4892902;29;20222;-75
2023/04/09 05:59:40;;;;;;;18.17;16.30;;;3.90;99.90;;;;;;4892506;29;20227;-74
2023/04/09 06:02:09;;;;;;;18.37;16.47;;;4.10;99.90;;;;;;4892589;29;20218;-74
2023/04/09 06:04:38;;;;;;;17.87;16.07;;;4.10;99.90;;;;;;4892280;29;20216;-77
2023/04/09 06:07:06;;;;;;;17.50;15.70;;;4.20;99.90;;;;;;4892862;29;20225;-75
2023/04/09 06:09:34;;;;;;;17.47;15.67;;;4.30;99.90;;;;;;4886834;29;20210;-75
2023/04/09 06:12:02;;;;;;;17.37;15.57;;;4.50;99.90;;;;;;4887257;29;20337;-77
2023/04/09 06:14:31;;;;;;;16.90;15.20;;;4.80;99.90;;;;;;4882252;29;20225;-75
2023/04/09 06:17:00;;;;;;;16.10;14.40;;;4.90;99.90;;;;;;4880309;29;20215;-75
2023/04/09 06:19:29;;;;;;;16.70;15.00;;;5.00;99.90;;;;;;4897663;29;20245;-76
2023/04/09 06:21:58;;;;;;;16.50;14.80;;;4.90;99.90;;;;;;4898635;29;20217;-75
2023/04/09 06:24:26;;;;;;;16.53;14.83;;;5.00;99.90;;;;;;4898988;29;20755;-77
2023/04/09 06:26:54;;;;;;;15.80;14.20;;;5.10;99.90;;;;;;4897862;29;20224;-75
2023/04/09 06:29:22;;;;;;;16.60;14.80;;;5.20;99.90;;;;;;4907762;29;20289;-75
2023/04/09 06:31:51;;;;;;;16.53;14.93;;;5.20;99.90;;;;;;4898860;29;20202;-76
2023/04/09 06:34:19;;;;;;;15.73;14.13;;;5.40;99.90;;;;;;4898869;29;20616;-74
2023/04/09 06:36:49;;;;;;;16.00;14.30;;;5.40;99.90;;;;;;4884245;29;20677;-76
2023/04/09 06:39:17;;;;;;;15.10;13.60;;;5.40;99.90;;;;;;4880074;29;20230;-75
2023/04/09 06:41:45;;;;;;;15.37;13.77;;;5.50;99.90;;;;;;4879309;29;20290;-76
2023/04/09 06:44:13;;;;;;;16.20;14.60;;;5.60;99.90;;;;;;4880237;29;20312;-77
2023/04/09 06:46:42;;;;;;;15.80;14.20;;;5.50;99.90;;;;;;4880162;29;20739;-75
2023/04/09 06:49:11;;;;;;;15.57;13.97;;;5.60;99.90;;;;;;4880082;29;20211;-76
2023/04/09 06:51:39;;;;;;;15.00;13.50;;;5.70;99.90;;;;;;4880453;29;20210;-76
2023/04/09 06:54:08;;;;;;;15.30;13.73;;;5.90;99.90;;;;;;4878985;29;20218;-76
2023/04/09 06:56:36;;;;;;;14.73;12.57;;;6.10;99.90;;;;;;4879034;29;20218;-77
2023/04/09 06:59:05;;;;;;;14.27;12.77;;;6.30;99.90;;;;;;4880033;29;20229;-75
2023/04/09 07:01:34;;;;;;;13.87;12.47;;;6.40;99.90;;;;;;4880965;29;20218;-74
2023/04/09 07:04:02;;;;;;;13.57;12.17;;;6.60;99.90;;;;;;4879397;29;20214;-75
2023/04/09 07:06:30;;;;;;;13.07;11.83;;;7.20;99.90;;;;;;4880317;29;20214;-76
2023/04/09 07:08:58;;;;;;;14.10;12.70;;;7.50;99.90;;;;;;4880622;29;20233;-75
2023/04/09 07:11:28;;;;;;;13.60;12.30;;;7.90;99.90;;;;;;4879811;29;20259;-76
2023/04/09 07:13:56;;;;;;;14.00;12.67;;;8.40;99.90;;;;;;4880121;29;20242;-76
2023/04/09 07:16:24;;;;;;;13.53;12.33;;;8.50;99.90;;;;;;4879591;29;20704;-77
2023/04/09 07:18:52;;;;;;;12.70;11.50;;;9.00;99.90;;;;;;4880945;29;20266;-76
2023/04/09 07:21:20;;;;;;;11.73;10.63;;;10.10;99.90;;;;;;4880560;29;20222;-76
2023/04/09 07:23:49;;;;;;;10.87;9.87;;;11.10;99.90;;;;;;4880865;29;20264;-77
2023/04/09 07:26:18;;;;;;;10.60;9.60;;;12.00;99.90;;;;;;4879799;29;20305;-75
2023/04/09 07:28:47;;;;;;;9.90;9.00;;;12.30;99.90;;;;;;4898668;29;20218;-77
2023/04/09 07:31:15;;;;;;;9.33;8.53;;;14.00;99.90;;;;;;4898713;29;20220;-77
2023/04/09 07:33:43;;;;;;;9.87;8.97;;;15.50;99.90;;;;;;4898550;29;20217;-75
2023/04/09 07:36:12;;;;;;;9.57;8.77;;;17.00;95.60;;;;;;4898399;29;20210;-77
2023/04/09 07:38:40;;;;;;;10.27;9.37;;;16.30;93.20;;;;;;4898081;29;20213;-77
2023/04/09 07:41:10;;;;;;;10.33;9.40;;;15.50;96.30;;;;;;4898217;29;20233;-77
2023/04/09 07:43:39;;;;;;;8.60;7.80;;;14.30;99.80;;;;;;4897063;29;20308;-76
2023/04/09 07:46:08;;;;;;;8.87;8.07;;;14.70;97.10;;;;;;4897247;29;20210;-76
2023/04/09 07:48:36;;;;;;;9.60;8.80;;;15.40;94.40;;;;;;4897466;29;20303;-75
2023/04/09 07:51:05;;;;;;;9.77;8.87;;;14.80;96.40;;;;;;4897279;29;20216;-75
2023/04/09 07:53:33;;;;;;;9.70;8.80;;;14.00;99.70;;;;;;4897178;29;20242;-76
2023/04/09 07:56:01;;;;;;;10.57;9.57;;;14.00;98.00;;;;;;4897026;29;20220;-76
2023/04/09 07:58:29;;;;;;;11.23;10.23;;;13.60;98.10;;;;;;4897101;29;20217;-75
2023/04/09 08:00:58;;;;;;;10.47;9.50;;;13.10;99.90;;;;;;4897412;29;20252;-75
2023/04/09 08:03:27;;;;;;;10.33;9.43;;;13.50;99.90;;;;;;4885421;29;20222;-76
2023/04/09 08:05:55;;;;;;;10.67;9.67;;;14.00;99.90;;;;;;4878724;29;20220;-77
2023/04/09 08:08:23;;;;;;;10.37;9.47;;;14.90;99.90;;;;;;4882113;29;20222;-75
2023/04/09 08:10:51;;;;;;;11.10;10.10;;;15.30;98.40;;;;;;4882254;29;20644;-76
2023/04/09 08:13:20;;;;;;;10.87;9.87;;;15.40;96.90;;;;;;4882053;29;20313;-77
2023/04/09 08:15:48;;;;;;;10.63;9.73;;;15.60;96.20;;;;;;4881941;29;20218;-77
2023/04/09 08:18:16;;;;;;;10.43;9.47;;;14.30;97.60;;;;;;4883116;29;20235;-77
2023/04/09 08:20:45;;;;;;;11.23;10.23;;;13.90;98.80;;;;;;4915343;29;20722;-77
2023/04/09 08:23:13;;;;;;;11.67;10.67;;;12.40;99.40;;;;;;4919098;29;20699;-75
2023/04/09 08:25:41;;;;;;;11.70;10.60;;;11.80;99.90;;;;;;4919511;29;20217;-75
2023/04/09 08:28:09;;;;;;;12.67;11.50;;;10.90;99.90;;;;;;4906541;29;20211;-75
2023/04/09 08:30:37;;;;;;;12.57;11.40;;;10.60;99.90;;;;;;4897210;29;20210;-75
2023/04/09 08:33:05;;;;;;;11.27;10.17;;;10.90;99.90;;;;;;4900105;29;20795;-75
2023/04/09 08:35:34;;;;;;;11.53;10.43;;;11.70;99.90;;;;;;4897076;29;20218;-76
2023/04/09 08:38:08;;;;;;;10.10;9.20;;;13.20;99.90;;;;;;4881870;29;20248;-76
2023/04/09 08:40:37;;;;;;;9.43;8.53;;;15.00;99.90;;;;;;4881640;29;20262;-75
2023/04/09 08:43:06;;;;;;;10.83;9.83;;;15.90;97.50;;;;;;4881308;29;20229;-76
2023/04/09 08:45:35;;;;;;;10.90;9.90;;;15.40;93.30;;;;;;4882512;29;20264;-74
2023/04/09 08:48:04;;;;;;;8.87;8.00;;;14.50;96.20;;;;;;4881793;29;20246;-75
2023/04/09 08:50:33;;;;;;;10.70;9.70;;;13.70;97.60;;;;;;4881736;29;20206;-75
2023/04/09 08:53:04;;;;;;;9.93;9.03;;;12.80;98.80;;;;;;4880881;29;20221;-74
2023/04/09 08:55:34;;;;;;;11.10;10.00;;;12.20;99.60;;;;;;4881463;29;20210;-76
2023/04/09 08:58:06;;;;;;;10.77;9.77;;;11.70;99.90;;;;;;4881243;29;20218;-75
2023/04/09 09:00:34;;;;;;;11.50;10.40;;;11.50;99.90;;;;;;4881130;29;20759;-76
2023/04/09 09:03:03;;;;;;;12.43;11.23;;;11.10;99.90;;;;;;4880975;29;20207;-75
2023/04/09 09:05:39;;;;;;;11.57;10.47;;;10.90;99.90;;;;;;4881221;29;20218;-75
2023/04/09 09:08:09;;;;;;;12.03;10.93;;;10.80;99.90;;;;;;4881054;29;20267;-75
2023/04/09 09:10:40;;;;;;;13.03;11.83;;;10.60;99.90;;;;;;4881105;29;20250;-74
2023/04/09 09:13:20;;;;;;;13.33;12.03;;;10.30;99.90;;;;;;4881108;29;20309;-75
2023/04/09 09:15:51;;;;;;;13.33;12.03;;;10.40;99.90;;;;;;4881280;29;20221;-74
2023/04/09 09:18:19;;;;;;;14.87;13.37;;;10.60;99.90;;;;;;4880100;29;20218;-75
2023/04/09 09:20:47;;;;;;;13.90;12.50;;;10.70;99.90;;;;;;4881057;29;20329;-74
2023/04/09 09:23:15;;;;;;;13.63;12.33;;;10.90;99.90;;;;;;4898978;29;20224;-75
2023/04/09 09:25:45;;;;;;;14.20;12.80;;;10.50;99.90;;;;;;4900070;29;20210;-74
2023/04/09 09:28:13;;;;;;;15.47;13.23;;;10.40;99.90;;;;;;4899953;29;20245;-75
2023/04/09 09:30:41;;;;;;;13.70;12.40;;;10.00;99.90;;;;;;4887837;29;20210;-75
2023/04/09 09:33:11;;;;;;;14.43;13.00;;;9.70;99.90;;;;;;4881362;29;20677;-75
2023/04/09 09:35:50;;;;;;;14.70;13.30;;;10.00;99.90;;;;;;4883957;29;20220;-75
2023/04/09 09:38:18;;;;;;;15.33;13.83;;;9.80;99.90;;;;;;4895173;29;20214;-73
2023/04/09 09:40:51;;;;;;;14.97;13.57;;;9.90;99.90;;;;;;4889893;29;20230;-75
2023/04/09 09:43:19;;;;;;;15.20;13.80;;;9.90;99.90;;;;;;4881663;29;20249;-77
2023/04/09 09:45:48;;;;;;;15.77;14.17;;;9.80;99.90;;;;;;4884831;29;20240;-75
2023/04/09 09:48:16;;;;;;;15.10;13.70;;;9.70;99.90;;;;;;4899898;29;20213;-75
2023/04/09 09:50:46;;;;;;;15.10;13.63;;;9.60;99.90;;;;;;4899228;29;20212;-75
2023/04/09 09:53:17;;;;;;;14.63;13.20;;;9.50;99.90;;;;;;4899571;29;20198;-74
2023/04/09 09:55:51;;;;;;;15.17;13.67;;;9.60;99.90;;;;;;4899494;29;20227;-73
2023/04/09 09:58:24;;;;;;;14.90;13.40;;;9.90;99.90;;;;;;4899470;29;20297;-75
2023/04/09 10:00:55;;;;;;;14.67;13.27;;;9.80;99.90;;;;;;4898865;29;20221;-75
2023/04/09 10:03:26;;;;;;;15.07;13.67;;;9.70;99.90;;;;;;4885785;29;20214;-75
2023/04/09 10:05:56;;;;;;;14.83;13.33;;;9.70;99.90;;;;;;4880571;29;20214;-75
2023/04/09 10:08:24;;;;;;;15.10;13.60;;;9.80;99.90;;;;;;4880392;29;20263;-75
2023/04/09 10:10:54;;;;;;;14.47;13.00;;;10.00;99.90;;;;;;4880907;29;20238;-75
2023/04/09 10:13:31;;;;;;;15.13;13.57;;;10.20;99.90;;;;;;4880237;29;20210;-75
2023/04/09 10:16:00;;;;;;;14.67;13.17;;;10.10;99.90;;;;;;4880571;29;20210;-76
2023/04/09 10:18:29;;;;;;;14.17;12.70;;;10.20;99.90;;;;;;4880566;29;20217;-76
2023/04/09 10:21:00;;;;;;;15.73;14.10;;;10.00;99.90;;;;;;4880966;29;20235;-74
2023/04/09 10:23:34;;;;;;;14.60;13.10;;;9.90;99.90;;;;;;4880045;29;20195;-75
2023/04/09 10:26:04;;;;;;;15.80;14.20;;;9.80;99.90;;;;;;4881203;29;20249;-75
2023/04/09 10:28:33;;;;;;;15.20;13.70;;;9.80;99.90;;;;;;4898506;29;20204;-75
2023/04/09 10:31:01;;;;;;;15.67;14.07;;;9.70;99.90;;;;;;4887903;29;20591;-74
2023/04/09 10:33:29;;;;;;;15.53;13.93;;;9.60;99.90;;;;;;4879961;29;20210;-75
2023/04/09 10:36:01;;;;;;;15.80;14.30;;;9.50;99.90;;;;;;4880482;29;20225;-74
2023/04/09 10:38:37;;;;;;;15.50;13.90;;;9.50;99.90;;;;;;4889218;29;20219;-75
2023/04/09 10:41:21;;;;;;;15.63;14.13;;;9.30;99.90;;;;;;4911200;29;20590;-75
2023/04/09 10:43:50;;;;;;;16.40;14.80;;;8.90;99.90;;;;;;4904838;29;20208;-74
2023/04/09 10:46:29;;;;;;;16.03;14.43;;;8.90;99.90;;;;;;4907309;29;20207;-74
2023/04/09 10:49:12;;;;;;;16.33;14.63;;;9.00;99.90;;;;;;4892732;29;20243;-75
2023/04/09 10:51:41;;;;;;;16.00;14.30;;;9.30;99.90;;;;;;4893043;29;20198;-74
2023/04/09 10:54:44;;;;;;;15.10;13.60;;;9.20;99.90;;;;;;4891198;29;20218;-74
2023/04/09 10:57:19;;;;;;;16.27;14.63;;;9.30;99.90;;;;;;4886127;29;20284;-75
2023/04/09 10:59:50;;;;;;;16.23;14.60;;;9.30;99.90;;;;;;4887906;29;20224;-73
2023/04/09 11:02:43;;;;;;;15.77;14.23;;;9.50;99.90;;;;;;4885438;29;20228;-73
2023/04/09 11:05:20;;;;;;;15.20;13.70;;;9.50;99.90;;;;;;4889255;29;20286;-73
2023/04/09 11:07:53;;;;;;;16.37;14.77;;;9.70;99.90;;;;;;4889345;29;20202;-73
2023/04/09 11:10:22;;;;;;;15.13;13.53;;;9.80;99.90;;;;;;4898990;29;20205;-75
2023/04/09 11:12:52;;;;;;;15.73;14.13;;;9.70;99.90;;;;;;4923478;29;20216;-75
2023/04/09 11:15:21;;;;;;;16.13;14.53;;;9.90;99.90;;;;;;4917023;29;20201;-75
2023/04/09 11:17:50;;;;;;;15.30;13.80;;;9.90;99.90;;;;;;4916465;29;20690;-75
2023/04/09 11:20:21;;;;;;;15.10;13.60;;;10.00;99.90;;;;;;4894478;29;20218;-74
2023/04/09 11:22:50;;;;;;;14.87;13.40;;;10.20;99.90;;;;;;4878946;29;20241;-75
2023/04/09 11:25:20;;;;;;;15.47;13.97;;;10.60;99.90;;;;;;4885351;29;20213;-75
2023/04/09 11:27:48;;;;;;;15.93;14.33;;;10.60;99.90;;;;;;4897681;29;20668;-73
2023/04/09 11:30:18;;;;;;;14.63;13.20;;;10.60;99.90;;;;;;4897727;29;20228;-76
2023/04/09 11:32:46;;;;;;;13.97;12.63;;;10.70;99.90;;;;;;4897546;29;20355;-73
2023/04/09 11:35:18;;;;;;;13.73;12.43;;;11.10;99.90;;;;;;4898811;29;20252;-76
2023/04/09 11:37:46;;;;;;;13.53;12.20;;;12.20;99.90;;;;;;4881296;29;20218;-76
2023/04/09 11:40:16;;;;;;;13.63;12.33;;;12.90;99.90;;;;;;4878851;29;20221;-75
2023/04/09 11:42:45;;;;;;;13.77;12.37;;;12.50;99.90;;;;;;4878528;29;20731;-75
2023/04/09 11:45:15;;;;;;;13.83;12.43;;;12.20;99.90;;;;;;4879023;29;20285;-74
2023/04/09 11:47:46;;;;;;;13.30;12.00;;;12.00;99.90;;;;;;4879011;29;20216;-73
2023/04/09 11:50:15;;;;;;;14.27;12.40;;;12.10;99.90;;;;;;4879314;29;20673;-75
2023/04/09 11:52:44;;;;;;;14.20;12.80;;;11.90;99.90;;;;;;4879094;29;20214;-74
2023/04/09 11:55:23;;;;;;;14.07;12.67;;;11.40;99.90;;;;;;4878995;29;20250;-75
2023/04/09 11:57:53;;;;;;;14.03;12.63;;;10.90;99.90;;;;;;4879335;29;20261;-73
2023/04/09 12:00:23;;;;;;;13.57;12.27;;;11.10;99.90;;;;;;4890805;29;20232;-76
2023/04/09 12:03:01;;;;;;;13.60;12.23;;;11.00;99.90;;;;;;4897197;29;20735;-74
2023/04/09 12:05:31;;;;;;;14.20;12.70;;;11.00;99.90;;;;;;4897896;29;20236;-75
2023/04/09 12:08:01;;;;;;;13.53;12.13;;;11.20;99.90;;;;;;4897900;29;20214;-74
2023/04/09 12:10:31;;;;;;;15.70;12.40;;;11.40;99.90;;;;;;4897813;29;20209;-74
2023/04/09 12:13:03;;;;;;;13.50;12.10;;;11.60;99.90;;;;;;4897864;29;20551;-74
2023/04/09 12:15:33;;;;;;;13.80;11.83;;;11.60;99.90;;;;;;4897752;29;20194;-74
2023/04/09 12:18:04;;;;;;;13.40;12.10;;;11.50;99.90;;;;;;4897678;29;20217;-74
2023/04/09 12:20:34;;;;;;;13.93;12.43;;;11.10;99.90;;;;;;4897699;29;20233;-74
2023/04/09 12:23:05;;;;;;;13.63;12.23;;;11.10;99.90;;;;;;4897392;29;20228;-75
2023/04/09 12:25:35;;;;;;;14.73;13.23;;;11.20;99.90;;;;;;4897792;29;20218;-74
2023/04/09 12:28:04;;;;;;;13.47;12.07;;;11.10;99.90;;;;;;4897862;29;20224;-74
2023/04/09 12:30:33;;;;;;;14.53;13.00;;;11.00;99.90;;;;;;4897893;29;20217;-74
2023/04/09 12:33:03;;;;;;;13.80;12.20;;;11.10;99.90;;;;;;4897131;29;20293;-75
2023/04/09 12:35:31;;;;;;;13.93;12.53;;;11.00;99.90;;;;;;4897416;29;20265;-73
2023/04/09 12:38:00;;;;;;;14.23;12.73;;;10.80;99.90;;;;;;4897700;29;20273;-73
2023/04/09 12:40:31;;;;;;;14.20;12.80;;;10.80;99.90;;;;;;4897767;29;20235;-73
2023/04/09 12:43:00;;;;;;;15.27;13.77;;;10.60;99.90;;;;;;4901551;29;20271;-74
2023/04/09 12:45:29;;;;;;;14.90;13.30;;;10.50;99.90;;;;;;4916826;29;20644;-74
2023/04/09 12:47:57;;;;;;;13.97;12.60;;;10.30;99.90;;;;;;4916050;29;20252;-74